Terminal Aerodrome Forecast
Issued by NWS Corpus Christi, TX

Home | Current Version | Previous Version | Text Only | Print | Product List | Glossary On
Versions: 1 2 3 4 5 6 7 8 9 10 11 12 13 14 15 16 17
000
FTUS44 KCRP 261700
TAFVCT
TAF
KVCT 261720Z 2618/2718 17014G20KT P6SM FEW040
     FM270200 16008KT P6SM FEW015
      TEMPO 2710/2713 5SM BR SCT012
     FM271500 19010KT P6SM SCT030=

USA.gov is the U.S. government's official web portal to all federal, state and local government web resources and services.